sensor_id;sensor_type;location;lat;lon;timestamp;P1;durP1;ratioP1;P2;durP2;ratioP2
55800;SDS011;41730;51.960;20.158;2023-07-16T00:02:27;5.80;;;5.00;;
55800;SDS011;41730;51.960;20.158;2023-07-16T00:04:58;5.90;;;5.00;;
55800;SDS011;41730;51.960;20.158;2023-07-16T00:07:31;6.40;;;5.30;;
55800;SDS011;41730;51.960;20.158;2023-07-16T00:10:03;5.90;;;5.00;;
55800;SDS011;41730;51.960;20.158;2023-07-16T00:12:36;6.50;;;5.00;;
55800;SDS011;41730;51.960;20.158;2023-07-16T00:15:08;5.20;;;4.70;;
55800;SDS011;41730;51.960;20.158;2023-07-16T00:17:40;6.80;;;5.30;;
55800;SDS011;41730;51.960;20.158;2023-07-16T00:20:12;5.50;;;4.70;;
55800;SDS011;41730;51.960;20.158;2023-07-16T00:22:43;7.40;;;5.20;;
55800;SDS011;41730;51.960;20.158;2023-07-16T00:25:15;6.00;;;5.20;;
55800;SDS011;41730;51.960;20.158;2023-07-16T00:27:47;7.40;;;5.40;;
55800;SDS011;41730;51.960;20.158;2023-07-16T00:30:19;6.30;;;5.00;;
55800;SDS011;41730;51.960;20.158;2023-07-16T00:32:50;6.70;;;5.30;;
55800;SDS011;41730;51.960;20.158;2023-07-16T00:35:23;6.00;;;5.20;;
55800;SDS011;41730;51.960;20.158;2023-07-16T00:37:54;6.10;;;5.20;;
55800;SDS011;41730;51.960;20.158;2023-07-16T00:40:26;6.00;;;5.10;;
55800;SDS011;41730;51.960;20.158;2023-07-16T00:42:58;6.20;;;5.20;;
55800;SDS011;41730;51.960;20.158;2023-07-16T00:45:29;8.00;;;5.70;;
55800;SDS011;41730;51.960;20.158;2023-07-16T00:48:02;6.40;;;5.80;;
55800;SDS011;41730;51.960;20.158;2023-07-16T00:53:07;6.20;;;5.00;;
55800;SDS011;41730;51.960;20.158;2023-07-16T00:55:39;8.90;;;5.20;;
55800;SDS011;41730;51.960;20.158;2023-07-16T00:58:12;7.10;;;6.20;;
55800;SDS011;41730;51.960;20.158;2023-07-16T01:00:43;8.20;;;5.40;;
55800;SDS011;41730;51.960;20.158;2023-07-16T01:03:15;5.50;;;4.80;;
55800;SDS011;41730;51.960;20.158;2023-07-16T01:05:47;7.50;;;5.90;;
55800;SDS011;41730;51.960;20.158;2023-07-16T01:08:29;6.30;;;5.20;;
55800;SDS011;41730;51.960;20.158;2023-07-16T01:11:04;6.00;;;5.40;;
55800;SDS011;41730;51.960;20.158;2023-07-16T01:13:36;7.40;;;5.30;;
55800;SDS011;41730;51.960;20.158;2023-07-16T01:16:17;7.60;;;5.50;;
55800;SDS011;41730;51.960;20.158;2023-07-16T01:18:49;6.40;;;5.50;;
55800;SDS011;41730;51.960;20.158;2023-07-16T01:21:22;6.30;;;5.30;;
55800;SDS011;41730;51.960;20.158;2023-07-16T01:24:03;7.60;;;5.70;;
55800;SDS011;41730;51.960;20.158;2023-07-16T01:26:51;7.60;;;5.40;;
55800;SDS011;41730;51.960;20.158;2023-07-16T01:29:35;6.40;;;5.50;;
55800;SDS011;41730;51.960;20.158;2023-07-16T01:32:11;7.10;;;5.30;;
55800;SDS011;41730;51.960;20.158;2023-07-16T01:34:43;7.70;;;5.40;;
55800;SDS011;41730;51.960;20.158;2023-07-16T01:37:40;7.10;;;5.80;;
55800;SDS011;41730;51.960;20.158;2023-07-16T01:40:12;8.40;;;6.70;;
55800;SDS011;41730;51.960;20.158;2023-07-16T01:42:44;6.70;;;6.00;;
55800;SDS011;41730;51.960;20.158;2023-07-16T01:45:16;7.70;;;5.90;;
55800;SDS011;41730;51.960;20.158;2023-07-16T01:47:49;6.90;;;5.20;;
55800;SDS011;41730;51.960;20.158;2023-07-16T01:50:29;6.40;;;5.40;;
55800;SDS011;41730;51.960;20.158;2023-07-16T01:53:01;7.50;;;5.50;;
55800;SDS011;41730;51.960;20.158;2023-07-16T01:55:32;6.70;;;5.80;;
55800;SDS011;41730;51.960;20.158;2023-07-16T01:58:04;9.30;;;5.20;;
55800;SDS011;41730;51.960;20.158;2023-07-16T02:00:36;7.60;;;5.70;;
55800;SDS011;41730;51.960;20.158;2023-07-16T02:03:08;7.40;;;6.00;;
55800;SDS011;41730;51.960;20.158;2023-07-16T02:05:41;8.50;;;5.80;;
55800;SDS011;41730;51.960;20.158;2023-07-16T02:08:13;7.40;;;5.80;;
55800;SDS011;41730;51.960;20.158;2023-07-16T02:10:46;7.20;;;6.30;;
55800;SDS011;41730;51.960;20.158;2023-07-16T02:13:19;7.60;;;5.70;;
55800;SDS011;41730;51.960;20.158;2023-07-16T02:15:51;7.50;;;6.20;;
55800;SDS011;41730;51.960;20.158;2023-07-16T02:18:22;9.30;;;6.60;;
55800;SDS011;41730;51.960;20.158;2023-07-16T02:20:54;9.40;;;6.70;;
55800;SDS011;41730;51.960;20.158;2023-07-16T02:23:25;7.50;;;6.00;;
55800;SDS011;41730;51.960;20.158;2023-07-16T02:25:58;7.00;;;6.20;;
55800;SDS011;41730;51.960;20.158;2023-07-16T02:28:31;6.90;;;6.00;;
55800;SDS011;41730;51.960;20.158;2023-07-16T02:31:03;7.20;;;6.20;;
55800;SDS011;41730;51.960;20.158;2023-07-16T02:33:34;6.50;;;5.90;;
55800;SDS011;41730;51.960;20.158;2023-07-16T02:36:06;6.70;;;5.90;;
55800;SDS011;41730;51.960;20.158;2023-07-16T02:38:38;7.80;;;6.40;;
55800;SDS011;41730;51.960;20.158;2023-07-16T02:41:10;8.00;;;6.00;;
55800;SDS011;41730;51.960;20.158;2023-07-16T02:43:42;7.00;;;6.30;;
55800;SDS011;41730;51.960;20.158;2023-07-16T02:46:15;8.80;;;6.10;;
55800;SDS011;41730;51.960;20.158;2023-07-16T02:48:47;7.30;;;6.30;;
55800;SDS011;41730;51.960;20.158;2023-07-16T02:51:18;7.40;;;6.00;;
55800;SDS011;41730;51.960;20.158;2023-07-16T02:53:50;7.80;;;6.50;;
55800;SDS011;41730;51.960;20.158;2023-07-16T02:56:23;7.10;;;6.10;;
55800;SDS011;41730;51.960;20.158;2023-07-16T02:58:55;8.80;;;6.10;;
55800;SDS011;41730;51.960;20.158;2023-07-16T03:01:26;7.20;;;5.80;;
55800;SDS011;41730;51.960;20.158;2023-07-16T03:03:58;7.30;;;6.10;;
55800;SDS011;41730;51.960;20.158;2023-07-16T03:06:30;7.30;;;6.20;;
55800;SDS011;41730;51.960;20.158;2023-07-16T03:09:01;6.80;;;6.10;;
55800;SDS011;41730;51.960;20.158;2023-07-16T03:11:33;7.00;;;6.30;;
55800;SDS011;41730;51.960;20.158;2023-07-16T03:14:05;6.80;;;5.50;;
55800;SDS011;41730;51.960;20.158;2023-07-16T03:16:37;7.80;;;5.70;;
55800;SDS011;41730;51.960;20.158;2023-07-16T03:19:09;7.30;;;6.30;;
55800;SDS011;41730;51.960;20.158;2023-07-16T03:21:41;7.20;;;5.50;;
55800;SDS011;41730;51.960;20.158;2023-07-16T03:24:15;6.70;;;6.00;;
55800;SDS011;41730;51.960;20.158;2023-07-16T03:26:52;6.90;;;5.70;;
55800;SDS011;41730;51.960;20.158;2023-07-16T03:29:46;6.90;;;5.70;;
55800;SDS011;41730;51.960;20.158;2023-07-16T03:32:22;7.00;;;5.30;;
55800;SDS011;41730;51.960;20.158;2023-07-16T03:35:09;7.10;;;5.50;;
55800;SDS011;41730;51.960;20.158;2023-07-16T03:37:40;7.60;;;6.20;;
55800;SDS011;41730;51.960;20.158;2023-07-16T03:40:16;6.30;;;5.70;;
55800;SDS011;41730;51.960;20.158;2023-07-16T03:42:51;9.80;;;5.80;;
55800;SDS011;41730;51.960;20.158;2023-07-16T03:45:23;7.30;;;5.40;;
55800;SDS011;41730;51.960;20.158;2023-07-16T03:47:55;6.30;;;5.20;;
55800;SDS011;41730;51.960;20.158;2023-07-16T03:50:27;7.00;;;5.20;;
55800;SDS011;41730;51.960;20.158;2023-07-16T03:52:58;6.70;;;5.60;;
55800;SDS011;41730;51.960;20.158;2023-07-16T03:55:32;7.10;;;5.50;;
55800;SDS011;41730;51.960;20.158;2023-07-16T03:58:04;6.30;;;5.70;;
55800;SDS011;41730;51.960;20.158;2023-07-16T04:00:35;6.40;;;5.60;;
55800;SDS011;41730;51.960;20.158;2023-07-16T04:03:11;6.90;;;5.50;;
55800;SDS011;41730;51.960;20.158;2023-07-16T04:05:42;7.20;;;5.30;;
55800;SDS011;41730;51.960;20.158;2023-07-16T04:08:14;6.20;;;5.60;;
55800;SDS011;41730;51.960;20.158;2023-07-16T04:10:46;6.60;;;5.30;;
55800;SDS011;41730;51.960;20.158;2023-07-16T04:13:17;5.90;;;5.40;;
55800;SDS011;41730;51.960;20.158;2023-07-16T04:15:48;7.20;;;5.90;;
55800;SDS011;41730;51.960;20.158;2023-07-16T04:18:21;6.20;;;5.60;;
55800;SDS011;41730;51.960;20.158;2023-07-16T04:20:53;6.70;;;5.70;;
55800;SDS011;41730;51.960;20.158;2023-07-16T04:23:24;7.00;;;6.00;;
55800;SDS011;41730;51.960;20.158;2023-07-16T04:25:56;6.20;;;5.40;;
55800;SDS011;41730;51.960;20.158;2023-07-16T04:28:28;7.70;;;6.00;;
55800;SDS011;41730;51.960;20.158;2023-07-16T04:31:00;9.80;;;5.60;;
55800;SDS011;41730;51.960;20.158;2023-07-16T04:33:32;6.00;;;5.30;;
55800;SDS011;41730;51.960;20.158;2023-07-16T04:36:04;6.40;;;5.80;;
55800;SDS011;41730;51.960;20.158;2023-07-16T04:38:36;6.40;;;5.40;;
55800;SDS011;41730;51.960;20.158;2023-07-16T04:41:07;6.40;;;5.60;;
55800;SDS011;41730;51.960;20.158;2023-07-16T04:43:41;5.70;;;5.10;;
55800;SDS011;41730;51.960;20.158;2023-07-16T04:46:12;6.60;;;5.10;;
55800;SDS011;41730;51.960;20.158;2023-07-16T04:48:46;6.00;;;5.40;;
55800;SDS011;41730;51.960;20.158;2023-07-16T04:51:18;6.70;;;5.80;;
55800;SDS011;41730;51.960;20.158;2023-07-16T04:53:49;6.10;;;5.50;;
55800;SDS011;41730;51.960;20.158;2023-07-16T04:56:21;6.20;;;5.40;;
55800;SDS011;41730;51.960;20.158;2023-07-16T04:58:53;7.00;;;5.50;;
55800;SDS011;41730;51.960;20.158;2023-07-16T05:01:24;7.00;;;5.50;;
55800;SDS011;41730;51.960;20.158;2023-07-16T05:03:56;7.60;;;5.60;;
55800;SDS011;41730;51.960;20.158;2023-07-16T05:06:28;6.20;;;5.30;;
55800;SDS011;41730;51.960;20.158;2023-07-16T05:08:59;6.80;;;5.50;;
55800;SDS011;41730;51.960;20.158;2023-07-16T05:11:32;6.60;;;5.80;;
55800;SDS011;41730;51.960;20.158;2023-07-16T05:16:36;7.30;;;5.60;;
55800;SDS011;41730;51.960;20.158;2023-07-16T05:19:08;7.20;;;5.00;;
55800;SDS011;41730;51.960;20.158;2023-07-16T05:21:39;7.40;;;5.80;;
55800;SDS011;41730;51.960;20.158;2023-07-16T05:24:11;6.20;;;5.30;;
55800;SDS011;41730;51.960;20.158;2023-07-16T05:26:43;7.70;;;6.10;;
55800;SDS011;41730;51.960;20.158;2023-07-16T05:29:15;6.60;;;5.60;;
55800;SDS011;41730;51.960;20.158;2023-07-16T05:31:48;7.90;;;5.50;;
55800;SDS011;41730;51.960;20.158;2023-07-16T05:34:20;7.10;;;5.80;;
55800;SDS011;41730;51.960;20.158;2023-07-16T05:36:52;5.90;;;5.30;;
55800;SDS011;41730;51.960;20.158;2023-07-16T05:39:24;7.20;;;5.50;;
55800;SDS011;41730;51.960;20.158;2023-07-16T05:41:56;5.90;;;5.10;;
55800;SDS011;41730;51.960;20.158;2023-07-16T05:44:30;8.20;;;5.50;;
55800;SDS011;41730;51.960;20.158;2023-07-16T05:47:02;7.70;;;5.90;;
55800;SDS011;41730;51.960;20.158;2023-07-16T05:49:35;5.90;;;5.00;;
55800;SDS011;41730;51.960;20.158;2023-07-16T05:52:07;6.20;;;4.90;;
55800;SDS011;41730;51.960;20.158;2023-07-16T05:54:38;6.60;;;5.50;;
55800;SDS011;41730;51.960;20.158;2023-07-16T05:57:12;5.80;;;4.70;;
55800;SDS011;41730;51.960;20.158;2023-07-16T05:59:44;7.00;;;5.40;;
55800;SDS011;41730;51.960;20.158;2023-07-16T06:02:16;7.40;;;5.20;;
55800;SDS011;41730;51.960;20.158;2023-07-16T06:04:47;7.20;;;6.10;;
55800;SDS011;41730;51.960;20.158;2023-07-16T06:07:19;6.20;;;4.90;;
55800;SDS011;41730;51.960;20.158;2023-07-16T06:09:52;6.60;;;4.90;;
55800;SDS011;41730;51.960;20.158;2023-07-16T06:12:23;6.30;;;4.50;;
55800;SDS011;41730;51.960;20.158;2023-07-16T06:14:56;5.60;;;4.60;;
55800;SDS011;41730;51.960;20.158;2023-07-16T06:17:28;8.00;;;5.20;;
55800;SDS011;41730;51.960;20.158;2023-07-16T06:20:00;5.80;;;5.10;;
55800;SDS011;41730;51.960;20.158;2023-07-16T06:22:31;6.00;;;5.30;;
55800;SDS011;41730;51.960;20.158;2023-07-16T06:25:03;6.20;;;4.90;;
55800;SDS011;41730;51.960;20.158;2023-07-16T06:27:38;5.20;;;4.70;;
55800;SDS011;41730;51.960;20.158;2023-07-16T06:30:10;6.90;;;5.00;;
55800;SDS011;41730;51.960;20.158;2023-07-16T06:32:41;5.70;;;4.20;;
55800;SDS011;41730;51.960;20.158;2023-07-16T06:35:13;7.70;;;5.20;;
55800;SDS011;41730;51.960;20.158;2023-07-16T06:37:45;7.90;;;5.00;;
55800;SDS011;41730;51.960;20.158;2023-07-16T06:40:17;5.90;;;4.40;;
55800;SDS011;41730;51.960;20.158;2023-07-16T06:42:48;6.30;;;4.80;;
55800;SDS011;41730;51.960;20.158;2023-07-16T06:45:20;6.50;;;4.70;;
55800;SDS011;41730;51.960;20.158;2023-07-16T06:47:53;6.60;;;5.00;;
55800;SDS011;41730;51.960;20.158;2023-07-16T06:50:25;5.50;;;4.30;;
55800;SDS011;41730;51.960;20.158;2023-07-16T06:52:57;6.10;;;4.40;;
55800;SDS011;41730;51.960;20.158;2023-07-16T06:55:29;6.40;;;3.90;;
55800;SDS011;41730;51.960;20.158;2023-07-16T06:58:01;5.10;;;4.10;;
55800;SDS011;41730;51.960;20.158;2023-07-16T07:00:34;11.70;;;4.70;;
55800;SDS011;41730;51.960;20.158;2023-07-16T07:03:07;6.90;;;4.40;;
55800;SDS011;41730;51.960;20.158;2023-07-16T07:05:41;9.00;;;4.40;;
55800;SDS011;41730;51.960;20.158;2023-07-16T07:08:13;6.00;;;4.40;;
55800;SDS011;41730;51.960;20.158;2023-07-16T07:10:44;5.30;;;4.20;;
55800;SDS011;41730;51.960;20.158;2023-07-16T07:13:18;6.40;;;4.30;;
55800;SDS011;41730;51.960;20.158;2023-07-16T07:15:49;7.50;;;4.50;;
55800;SDS011;41730;51.960;20.158;2023-07-16T07:18:21;6.60;;;4.10;;
55800;SDS011;41730;51.960;20.158;2023-07-16T07:20:53;7.10;;;4.90;;
55800;SDS011;41730;51.960;20.158;2023-07-16T07:23:25;9.00;;;5.10;;
55800;SDS011;41730;51.960;20.158;2023-07-16T07:25:57;9.30;;;4.50;;
55800;SDS011;41730;51.960;20.158;2023-07-16T07:28:34;9.50;;;5.00;;
55800;SDS011;41730;51.960;20.158;2023-07-16T07:31:05;5.50;;;5.00;;
55800;SDS011;41730;51.960;20.158;2023-07-16T07:33:37;7.10;;;5.30;;
55800;SDS011;41730;51.960;20.158;2023-07-16T07:36:08;7.10;;;5.30;;
55800;SDS011;41730;51.960;20.158;2023-07-16T07:38:40;7.30;;;5.30;;
55800;SDS011;41730;51.960;20.158;2023-07-16T07:41:11;5.60;;;5.00;;
55800;SDS011;41730;51.960;20.158;2023-07-16T07:43:44;5.80;;;5.00;;
55800;SDS011;41730;51.960;20.158;2023-07-16T07:46:15;8.10;;;4.90;;
55800;SDS011;41730;51.960;20.158;2023-07-16T07:48:48;6.80;;;4.80;;
55800;SDS011;41730;51.960;20.158;2023-07-16T07:51:19;7.30;;;5.10;;
55800;SDS011;41730;51.960;20.158;2023-07-16T07:53:51;6.40;;;5.00;;
55800;SDS011;41730;51.960;20.158;2023-07-16T07:56:23;5.30;;;4.70;;
55800;SDS011;41730;51.960;20.158;2023-07-16T07:58:54;5.00;;;4.40;;
55800;SDS011;41730;51.960;20.158;2023-07-16T08:01:26;6.10;;;4.70;;
55800;SDS011;41730;51.960;20.158;2023-07-16T08:03:58;6.20;;;4.40;;
55800;SDS011;41730;51.960;20.158;2023-07-16T08:06:30;6.20;;;4.20;;
55800;SDS011;41730;51.960;20.158;2023-07-16T08:09:03;6.60;;;4.20;;
55800;SDS011;41730;51.960;20.158;2023-07-16T08:11:36;6.70;;;4.30;;
55800;SDS011;41730;51.960;20.158;2023-07-16T08:14:08;7.80;;;5.40;;
55800;SDS011;41730;51.960;20.158;2023-07-16T08:16:41;6.00;;;4.20;;
55800;SDS011;41730;51.960;20.158;2023-07-16T08:19:13;7.50;;;4.80;;
55800;SDS011;41730;51.960;20.158;2023-07-16T08:21:45;6.10;;;4.40;;
55800;SDS011;41730;51.960;20.158;2023-07-16T08:24:17;7.80;;;4.60;;
55800;SDS011;41730;51.960;20.158;2023-07-16T08:26:49;5.00;;;4.30;;
55800;SDS011;41730;51.960;20.158;2023-07-16T08:29:20;6.00;;;4.20;;
55800;SDS011;41730;51.960;20.158;2023-07-16T08:31:52;7.90;;;4.40;;
55800;SDS011;41730;51.960;20.158;2023-07-16T08:34:24;8.00;;;4.40;;
55800;SDS011;41730;51.960;20.158;2023-07-16T08:36:56;6.70;;;4.50;;
55800;SDS011;41730;51.960;20.158;2023-07-16T08:39:27;5.40;;;4.50;;
55800;SDS011;41730;51.960;20.158;2023-07-16T08:42:00;5.40;;;4.40;;
55800;SDS011;41730;51.960;20.158;2023-07-16T08:44:33;5.00;;;4.50;;
55800;SDS011;41730;51.960;20.158;2023-07-16T08:47:06;8.10;;;4.90;;
55800;SDS011;41730;51.960;20.158;2023-07-16T08:49:38;10.80;;;4.40;;
55800;SDS011;41730;51.960;20.158;2023-07-16T08:52:10;9.40;;;4.80;;
55800;SDS011;41730;51.960;20.158;2023-07-16T08:54:43;8.20;;;4.50;;
55800;SDS011;41730;51.960;20.158;2023-07-16T08:57:14;7.80;;;3.90;;
55800;SDS011;41730;51.960;20.158;2023-07-16T09:02:19;6.80;;;4.20;;
55800;SDS011;41730;51.960;20.158;2023-07-16T09:04:52;4.20;;;3.80;;
55800;SDS011;41730;51.960;20.158;2023-07-16T09:07:23;4.70;;;4.10;;
55800;SDS011;41730;51.960;20.158;2023-07-16T09:09:58;7.80;;;4.60;;
55800;SDS011;41730;51.960;20.158;2023-07-16T09:12:30;6.10;;;4.30;;
55800;SDS011;41730;51.960;20.158;2023-07-16T09:15:02;7.20;;;4.10;;
55800;SDS011;41730;51.960;20.158;2023-07-16T09:17:35;4.80;;;4.30;;
55800;SDS011;41730;51.960;20.158;2023-07-16T09:20:08;5.50;;;4.30;;
55800;SDS011;41730;51.960;20.158;2023-07-16T09:22:41;7.70;;;4.40;;
55800;SDS011;41730;51.960;20.158;2023-07-16T09:25:13;5.70;;;4.10;;
55800;SDS011;41730;51.960;20.158;2023-07-16T09:27:47;5.20;;;4.20;;
55800;SDS011;41730;51.960;20.158;2023-07-16T09:30:19;10.10;;;4.40;;
55800;SDS011;41730;51.960;20.158;2023-07-16T09:32:51;5.70;;;4.40;;
55800;SDS011;41730;51.960;20.158;2023-07-16T09:35:23;5.20;;;4.40;;
55800;SDS011;41730;51.960;20.158;2023-07-16T09:37:55;6.40;;;4.80;;
55800;SDS011;41730;51.960;20.158;2023-07-16T09:40:26;5.60;;;4.50;;
55800;SDS011;41730;51.960;20.158;2023-07-16T09:42:58;7.30;;;4.60;;
55800;SDS011;41730;51.960;20.158;2023-07-16T09:45:31;5.30;;;4.50;;
55800;SDS011;41730;51.960;20.158;2023-07-16T09:48:03;5.50;;;4.30;;
55800;SDS011;41730;51.960;20.158;2023-07-16T09:50:36;6.90;;;4.40;;
55800;SDS011;41730;51.960;20.158;2023-07-16T09:53:14;5.40;;;4.30;;
55800;SDS011;41730;51.960;20.158;2023-07-16T09:55:48;5.90;;;3.90;;
55800;SDS011;41730;51.960;20.158;2023-07-16T09:58:22;7.50;;;3.80;;
55800;SDS011;41730;51.960;20.158;2023-07-16T10:00:55;8.60;;;4.00;;
55800;SDS011;41730;51.960;20.158;2023-07-16T10:03:28;3.80;;;3.40;;
55800;SDS011;41730;51.960;20.158;2023-07-16T10:06:06;4.80;;;3.30;;
55800;SDS011;41730;51.960;20.158;2023-07-16T10:08:38;4.90;;;3.20;;
55800;SDS011;41730;51.960;20.158;2023-07-16T10:11:16;4.20;;;3.30;;
55800;SDS011;41730;51.960;20.158;2023-07-16T10:13:51;5.60;;;3.20;;
55800;SDS011;41730;51.960;20.158;2023-07-16T10:16:23;3.80;;;3.40;;
55800;SDS011;41730;51.960;20.158;2023-07-16T10:18:57;4.30;;;3.40;;
55800;SDS011;41730;51.960;20.158;2023-07-16T10:21:36;3.80;;;3.30;;
55800;SDS011;41730;51.960;20.158;2023-07-16T10:24:15;5.50;;;3.40;;
55800;SDS011;41730;51.960;20.158;2023-07-16T10:26:48;4.00;;;3.20;;
55800;SDS011;41730;51.960;20.158;2023-07-16T10:29:20;4.80;;;3.20;;
55800;SDS011;41730;51.960;20.158;2023-07-16T10:31:52;4.60;;;3.50;;
55800;SDS011;41730;51.960;20.158;2023-07-16T10:34:24;4.80;;;3.10;;
55800;SDS011;41730;51.960;20.158;2023-07-16T10:36:56;5.60;;;3.20;;
55800;SDS011;41730;51.960;20.158;2023-07-16T10:39:27;3.80;;;3.00;;
55800;SDS011;41730;51.960;20.158;2023-07-16T10:41:59;5.50;;;3.40;;
55800;SDS011;41730;51.960;20.158;2023-07-16T10:44:31;5.20;;;3.30;;
55800;SDS011;41730;51.960;20.158;2023-07-16T10:47:04;3.90;;;3.10;;
55800;SDS011;41730;51.960;20.158;2023-07-16T10:49:37;5.10;;;3.20;;
55800;SDS011;41730;51.960;20.158;2023-07-16T10:52:09;5.50;;;3.00;;
55800;SDS011;41730;51.960;20.158;2023-07-16T10:54:41;3.90;;;3.10;;
55800;SDS011;41730;51.960;20.158;2023-07-16T10:57:12;3.80;;;2.90;;
55800;SDS011;41730;51.960;20.158;2023-07-16T10:59:46;4.50;;;2.60;;
55800;SDS011;41730;51.960;20.158;2023-07-16T11:02:18;8.00;;;2.80;;
55800;SDS011;41730;51.960;20.158;2023-07-16T11:04:51;5.00;;;3.00;;
55800;SDS011;41730;51.960;20.158;2023-07-16T11:07:23;5.60;;;2.50;;
55800;SDS011;41730;51.960;20.158;2023-07-16T11:09:57;2.50;;;2.10;;
55800;SDS011;41730;51.960;20.158;2023-07-16T11:12:32;5.00;;;2.20;;
55800;SDS011;41730;51.960;20.158;2023-07-16T11:15:04;4.60;;;2.10;;
55800;SDS011;41730;51.960;20.158;2023-07-16T11:17:38;2.90;;;2.10;;
55800;SDS011;41730;51.960;20.158;2023-07-16T11:20:10;3.50;;;2.00;;
55800;SDS011;41730;51.960;20.158;2023-07-16T11:22:42;4.70;;;2.40;;
55800;SDS011;41730;51.960;20.158;2023-07-16T11:25:16;2.50;;;1.70;;
55800;SDS011;41730;51.960;20.158;2023-07-16T11:27:53;4.70;;;2.00;;
55800;SDS011;41730;51.960;20.158;2023-07-16T11:30:25;2.70;;;1.70;;
55800;SDS011;41730;51.960;20.158;2023-07-16T11:32:57;2.40;;;1.60;;
55800;SDS011;41730;51.960;20.158;2023-07-16T11:35:29;2.90;;;1.90;;
55800;SDS011;41730;51.960;20.158;2023-07-16T11:38:01;3.80;;;2.00;;
55800;SDS011;41730;51.960;20.158;2023-07-16T11:40:35;2.60;;;1.60;;
55800;SDS011;41730;51.960;20.158;2023-07-16T11:43:11;2.60;;;1.80;;
55800;SDS011;41730;51.960;20.158;2023-07-16T11:45:46;2.90;;;1.90;;
55800;SDS011;41730;51.960;20.158;2023-07-16T11:48:19;2.50;;;1.70;;
55800;SDS011;41730;51.960;20.158;2023-07-16T11:50:51;3.30;;;2.20;;
55800;SDS011;41730;51.960;20.158;2023-07-16T11:53:23;3.60;;;2.00;;
55800;SDS011;41730;51.960;20.158;2023-07-16T11:55:55;3.30;;;2.20;;
55800;SDS011;41730;51.960;20.158;2023-07-16T11:58:27;3.10;;;2.40;;
55800;SDS011;41730;51.960;20.158;2023-07-16T12:00:59;3.00;;;2.30;;
55800;SDS011;41730;51.960;20.158;2023-07-16T12:03:31;2.80;;;2.40;;
55800;SDS011;41730;51.960;20.158;2023-07-16T12:06:02;3.40;;;2.30;;
55800;SDS011;41730;51.960;20.158;2023-07-16T12:08:34;3.60;;;2.50;;
55800;SDS011;41730;51.960;20.158;2023-07-16T12:11:06;2.80;;;2.20;;
55800;SDS011;41730;51.960;20.158;2023-07-16T12:13:38;3.50;;;1.80;;
55800;SDS011;41730;51.960;20.158;2023-07-16T12:16:09;5.10;;;2.20;;
55800;SDS011;41730;51.960;20.158;2023-07-16T12:18:41;4.90;;;2.00;;
55800;SDS011;41730;51.960;20.158;2023-07-16T12:21:14;3.80;;;2.10;;
55800;SDS011;41730;51.960;20.158;2023-07-16T12:23:45;2.80;;;2.00;;
55800;SDS011;41730;51.960;20.158;2023-07-16T12:26:17;4.00;;;2.10;;
55800;SDS011;41730;51.960;20.158;2023-07-16T12:28:49;2.70;;;2.10;;
55800;SDS011;41730;51.960;20.158;2023-07-16T12:31:21;3.30;;;2.10;;
55800;SDS011;41730;51.960;20.158;2023-07-16T12:33:52;3.60;;;2.00;;
55800;SDS011;41730;51.960;20.158;2023-07-16T12:36:24;4.40;;;2.20;;
55800;SDS011;41730;51.960;20.158;2023-07-16T12:38:56;2.60;;;2.10;;
55800;SDS011;41730;51.960;20.158;2023-07-16T12:41:28;2.40;;;1.90;;
55800;SDS011;41730;51.960;20.158;2023-07-16T12:43:59;3.60;;;2.10;;
55800;SDS011;41730;51.960;20.158;2023-07-16T12:46:32;3.70;;;2.30;;
55800;SDS011;41730;51.960;20.158;2023-07-16T12:49:03;3.40;;;2.10;;
55800;SDS011;41730;51.960;20.158;2023-07-16T12:51:35;3.50;;;2.30;;
55800;SDS011;41730;51.960;20.158;2023-07-16T12:54:07;6.10;;;2.20;;
55800;SDS011;41730;51.960;20.158;2023-07-16T12:56:39;2.40;;;2.00;;
55800;SDS011;41730;51.960;20.158;2023-07-16T12:59:10;4.60;;;2.10;;
55800;SDS011;41730;51.960;20.158;2023-07-16T13:01:42;3.90;;;2.30;;
55800;SDS011;41730;51.960;20.158;2023-07-16T13:04:15;2.60;;;1.90;;
55800;SDS011;41730;51.960;20.158;2023-07-16T13:06:50;2.60;;;1.80;;
55800;SDS011;41730;51.960;20.158;2023-07-16T13:11:52;3.40;;;1.90;;
55800;SDS011;41730;51.960;20.158;2023-07-16T13:14:25;2.50;;;2.00;;
55800;SDS011;41730;51.960;20.158;2023-07-16T13:16:58;2.30;;;1.60;;
55800;SDS011;41730;51.960;20.158;2023-07-16T13:19:34;3.30;;;1.70;;
55800;SDS011;41730;51.960;20.158;2023-07-16T13:22:06;2.60;;;1.80;;
55800;SDS011;41730;51.960;20.158;2023-07-16T13:24:38;2.00;;;1.40;;
55800;SDS011;41730;51.960;20.158;2023-07-16T13:27:18;2.90;;;1.80;;
55800;SDS011;41730;51.960;20.158;2023-07-16T13:29:51;6.50;;;1.70;;
55800;SDS011;41730;51.960;20.158;2023-07-16T13:32:24;3.30;;;1.20;;
55800;SDS011;41730;51.960;20.158;2023-07-16T13:34:56;3.00;;;1.60;;
55800;SDS011;41730;51.960;20.158;2023-07-16T13:37:30;5.50;;;1.50;;
55800;SDS011;41730;51.960;20.158;2023-07-16T13:40:03;2.10;;;1.40;;
55800;SDS011;41730;51.960;20.158;2023-07-16T13:42:39;3.70;;;1.40;;
55800;SDS011;41730;51.960;20.158;2023-07-16T13:45:13;3.80;;;1.60;;
55800;SDS011;41730;51.960;20.158;2023-07-16T13:47:46;2.60;;;1.60;;
55800;SDS011;41730;51.960;20.158;2023-07-16T13:50:20;2.00;;;1.30;;
55800;SDS011;41730;51.960;20.158;2023-07-16T13:52:54;2.00;;;1.30;;
55800;SDS011;41730;51.960;20.158;2023-07-16T13:55:30;3.00;;;1.30;;
55800;SDS011;41730;51.960;20.158;2023-07-16T14:00:34;3.40;;;1.30;;
55800;SDS011;41730;51.960;20.158;2023-07-16T14:03:06;2.50;;;1.20;;
55800;SDS011;41730;51.960;20.158;2023-07-16T14:05:39;2.50;;;1.30;;
55800;SDS011;41730;51.960;20.158;2023-07-16T14:08:12;3.20;;;1.50;;
55800;SDS011;41730;51.960;20.158;2023-07-16T14:10:46;2.60;;;1.50;;
55800;SDS011;41730;51.960;20.158;2023-07-16T14:13:19;2.80;;;1.40;;
55800;SDS011;41730;51.960;20.158;2023-07-16T14:15:51;2.10;;;1.40;;
55800;SDS011;41730;51.960;20.158;2023-07-16T14:18:23;3.30;;;1.60;;
55800;SDS011;41730;51.960;20.158;2023-07-16T14:20:58;2.30;;;1.50;;
55800;SDS011;41730;51.960;20.158;2023-07-16T14:23:33;2.30;;;1.30;;
55800;SDS011;41730;51.960;20.158;2023-07-16T14:26:07;2.00;;;1.30;;
55800;SDS011;41730;51.960;20.158;2023-07-16T14:28:40;2.40;;;1.20;;
55800;SDS011;41730;51.960;20.158;2023-07-16T14:31:13;3.80;;;1.50;;
55800;SDS011;41730;51.960;20.158;2023-07-16T14:33:47;2.50;;;1.40;;
55800;SDS011;41730;51.960;20.158;2023-07-16T14:36:20;2.00;;;1.30;;
55800;SDS011;41730;51.960;20.158;2023-07-16T14:38:53;3.10;;;1.60;;
55800;SDS011;41730;51.960;20.158;2023-07-16T14:41:28;2.50;;;1.50;;
55800;SDS011;41730;51.960;20.158;2023-07-16T14:44:02;2.60;;;1.40;;
55800;SDS011;41730;51.960;20.158;2023-07-16T14:46:36;3.90;;;1.50;;
55800;SDS011;41730;51.960;20.158;2023-07-16T14:49:09;4.30;;;1.50;;
55800;SDS011;41730;51.960;20.158;2023-07-16T14:51:42;2.90;;;1.50;;
55800;SDS011;41730;51.960;20.158;2023-07-16T14:54:15;2.70;;;1.40;;
55800;SDS011;41730;51.960;20.158;2023-07-16T14:56:48;2.20;;;1.60;;
55800;SDS011;41730;51.960;20.158;2023-07-16T14:59:21;1.80;;;1.40;;
55800;SDS011;41730;51.960;20.158;2023-07-16T15:01:52;2.70;;;1.60;;
55800;SDS011;41730;51.960;20.158;2023-07-16T15:04:25;4.80;;;1.80;;
55800;SDS011;41730;51.960;20.158;2023-07-16T15:06:56;2.20;;;1.50;;
55800;SDS011;41730;51.960;20.158;2023-07-16T15:12:00;2.80;;;1.70;;
55800;SDS011;41730;51.960;20.158;2023-07-16T15:14:34;3.10;;;1.40;;
55800;SDS011;41730;51.960;20.158;2023-07-16T15:17:08;2.90;;;1.60;;
55800;SDS011;41730;51.960;20.158;2023-07-16T15:19:43;2.30;;;1.50;;
55800;SDS011;41730;51.960;20.158;2023-07-16T15:22:17;2.40;;;1.80;;